createdAt,value
2023-03-19T00:00:50.588Z,86.30
2023-03-19T00:03:24.159Z,87.30
2023-03-19T00:05:57.406Z,83.20
2023-03-19T00:08:28.782Z,83.60
2023-03-19T00:10:59.737Z,82.50
2023-03-19T00:13:30.752Z,82.40
2023-03-19T00:16:02.718Z,84.50
2023-03-19T00:18:36.246Z,88.30
2023-03-19T00:21:07.484Z,89.10
2023-03-19T00:23:39.332Z,84.00
2023-03-19T00:26:10.757Z,82.60
2023-03-19T00:28:42.385Z,81.90
2023-03-19T00:31:16.650Z,86.30
2023-03-19T00:33:50.066Z,84.90
2023-03-19T00:36:21.285Z,85.40
2023-03-19T00:38:52.346Z,84.90
2023-03-19T00:41:24.676Z,85.60
2023-03-19T00:43:59.150Z,83.70
2023-03-19T00:46:30.969Z,85.90
2023-03-19T00:49:04.168Z,82.90
2023-03-19T00:51:35.367Z,81.40
2023-03-19T00:54:07.401Z,83.00
2023-03-19T00:56:39.280Z,83.60
2023-03-19T00:59:10.471Z,84.30
2023-03-19T01:01:41.862Z,84.80
2023-03-19T01:04:16.018Z,85.30
2023-03-19T01:06:47.884Z,84.80
2023-03-19T01:09:20.155Z,83.00
2023-03-19T01:11:51.479Z,83.70
2023-03-19T01:14:22.786Z,83.50
2023-03-19T01:16:54.190Z,82.50
2023-03-19T01:19:27.495Z,86.40
2023-03-19T01:22:00.177Z,86.40
2023-03-19T01:24:35.030Z,86.10
2023-03-19T01:27:06.965Z,88.10
2023-03-19T01:29:38.807Z,87.70
2023-03-19T01:32:10.499Z,88.80
2023-03-19T01:34:43.744Z,92.00
2023-03-19T01:37:15.436Z,92.00
2023-03-19T01:39:46.520Z,91.90
2023-03-19T01:42:17.965Z,92.30
2023-03-19T01:44:50.346Z,92.40
2023-03-19T01:47:26.013Z,93.70
2023-03-19T01:50:01.699Z,94.30
2023-03-19T01:52:36.536Z,94.00
2023-03-19T01:55:10.418Z,94.40
2023-03-19T01:57:41.670Z,94.50
2023-03-19T02:00:15.532Z,95.40
2023-03-19T02:02:48.444Z,95.70
2023-03-19T02:05:26.761Z,95.80
2023-03-19T02:08:02.194Z,96.20
2023-03-19T02:10:34.143Z,96.60
2023-03-19T02:13:05.250Z,97.30
2023-03-19T02:15:36.763Z,97.90
2023-03-19T02:18:08.381Z,98.40
2023-03-19T02:20:48.116Z,98.60
2023-03-19T02:23:28.295Z,99.20
2023-03-19T02:26:08.449Z,98.90
2023-03-19T02:28:45.643Z,99.90
2023-03-19T02:31:18.411Z,99.90
2023-03-19T02:34:00.327Z,99.90
2023-03-19T02:36:38.330Z,99.90
2023-03-19T02:39:14.951Z,99.90
2023-03-19T02:41:48.985Z,99.90
2023-03-19T02:44:21.988Z,99.90
2023-03-19T02:46:53.505Z,99.90
2023-03-19T02:49:24.740Z,99.90
2023-03-19T02:51:56.203Z,99.90
2023-03-19T02:54:27.146Z,99.90
2023-03-19T02:57:01.191Z,99.90
2023-03-19T02:59:32.491Z,99.90
2023-03-19T03:02:03.739Z,99.90
2023-03-19T03:04:34.720Z,99.90
2023-03-19T03:07:07.285Z,99.90
2023-03-19T03:09:38.312Z,99.90
2023-03-19T03:12:13.672Z,99.90
2023-03-19T03:14:45.805Z,99.90
2023-03-19T03:17:16.848Z,99.90
2023-03-19T03:19:48.764Z,99.90
2023-03-19T03:22:20.080Z,99.90
2023-03-19T03:24:51.595Z,99.90
2023-03-19T03:27:25.115Z,99.90
2023-03-19T03:29:56.629Z,99.90
2023-03-19T03:32:28.943Z,99.90
2023-03-19T03:35:00.964Z,99.90
2023-03-19T03:37:32.595Z,99.90
2023-03-19T03:40:05.015Z,99.90
2023-03-19T03:42:39.174Z,99.90
2023-03-19T03:45:12.242Z,99.90
2023-03-19T03:47:46.516Z,99.90
2023-03-19T03:50:18.589Z,99.90
2023-03-19T03:52:49.993Z,99.90
2023-03-19T03:55:21.334Z,99.90
2023-03-19T03:57:55.685Z,99.90
2023-03-19T04:00:27.466Z,99.90
2023-03-19T04:02:58.899Z,99.90
2023-03-19T04:05:29.973Z,99.90
2023-03-19T04:08:01.391Z,99.90
2023-03-19T04:10:33.989Z,99.90
2023-03-19T04:13:08.128Z,99.90
2023-03-19T04:15:39.581Z,99.90
2023-03-19T04:18:11.012Z,99.90
2023-03-19T04:20:42.398Z,99.90
2023-03-19T04:23:13.174Z,99.90
2023-03-19T04:25:45.177Z,99.90
2023-03-19T04:28:18.737Z,99.90
2023-03-19T04:30:50.214Z,99.90
2023-03-19T04:33:22.271Z,99.90
2023-03-19T04:35:54.422Z,99.90
2023-03-19T04:38:28.334Z,99.90
2023-03-19T04:41:00.220Z,99.90
2023-03-19T04:43:34.134Z,99.90
2023-03-19T04:46:06.094Z,99.90
2023-03-19T04:48:38.980Z,99.90
2023-03-19T04:51:14.300Z,99.90
2023-03-19T04:53:45.870Z,99.90
2023-03-19T04:56:19.047Z,99.90
2023-03-19T04:58:53.086Z,99.90
2023-03-19T05:01:24.827Z,99.90
2023-03-19T05:03:56.688Z,99.90
2023-03-19T05:06:28.336Z,99.90
2023-03-19T05:09:00.731Z,99.90
2023-03-19T05:11:33.729Z,99.90
2023-03-19T05:14:07.356Z,99.90
2023-03-19T05:16:39.707Z,99.90
2023-03-19T05:19:14.287Z,99.90
2023-03-19T05:21:46.574Z,99.90
2023-03-19T05:24:18.068Z,99.90
2023-03-19T05:26:49.516Z,99.90
2023-03-19T05:29:23.935Z,99.90
2023-03-19T05:31:55.864Z,99.90
2023-03-19T05:34:27.704Z,99.90
2023-03-19T05:36:59.159Z,99.90
2023-03-19T05:39:31.636Z,99.90
2023-03-19T05:42:03.097Z,99.90
2023-03-19T05:44:36.861Z,99.90
2023-03-19T05:47:09.888Z,99.90
2023-03-19T05:49:42.012Z,99.90
2023-03-19T05:52:13.509Z,99.90
2023-03-19T05:54:45.270Z,99.90
2023-03-19T05:57:17.231Z,99.90
2023-03-19T05:59:50.796Z,99.90
2023-03-19T06:02:22.741Z,99.90
2023-03-19T06:04:55.596Z,99.90
2023-03-19T06:07:27.190Z,99.90
2023-03-19T06:09:58.680Z,99.90
2023-03-19T06:12:31.250Z,99.90
2023-03-19T06:15:05.728Z,99.90
2023-03-19T06:17:37.547Z,99.90
2023-03-19T06:20:09.792Z,99.90
2023-03-19T06:22:41.225Z,99.90
2023-03-19T06:25:17.135Z,99.90
2023-03-19T06:27:48.640Z,99.90
2023-03-19T06:30:22.681Z,99.90
2023-03-19T06:32:53.568Z,99.90
2023-03-19T06:35:25.140Z,99.90
2023-03-19T06:37:56.926Z,99.90
2023-03-19T06:40:28.471Z,99.90
2023-03-19T06:43:00.177Z,99.90
2023-03-19T06:45:33.717Z,99.90
2023-03-19T06:48:05.241Z,99.90
2023-03-19T06:50:36.969Z,99.90
2023-03-19T06:53:08.886Z,99.90
2023-03-19T06:55:41.003Z,99.90
2023-03-19T06:58:12.966Z,99.90
2023-03-19T07:00:47.251Z,99.90
2023-03-19T07:03:18.912Z,99.90
2023-03-19T07:05:51.446Z,99.90
2023-03-19T07:08:24.062Z,99.90
2023-03-19T07:10:58.042Z,99.90
2023-03-19T07:13:29.558Z,99.90
2023-03-19T07:16:04.308Z,99.90
2023-03-19T07:18:35.906Z,99.90
2023-03-19T07:21:07.814Z,99.90
2023-03-19T07:23:40.334Z,99.90
2023-03-19T07:26:12.722Z,99.90
2023-03-19T07:28:44.530Z,99.90
2023-03-19T07:31:18.875Z,99.90
2023-03-19T07:33:50.182Z,99.90
2023-03-19T07:36:22.860Z,99.90
2023-03-19T07:38:54.460Z,99.90
2023-03-19T07:41:25.817Z,99.90
2023-03-19T07:43:57.277Z,99.90
2023-03-19T07:46:31.957Z,99.90
2023-03-19T07:49:03.427Z,99.90
2023-03-19T07:51:34.919Z,99.90
2023-03-19T07:54:07.805Z,99.90
2023-03-19T07:56:39.802Z,99.90
2023-03-19T07:59:12.353Z,99.90
2023-03-19T08:01:46.500Z,99.90
2023-03-19T08:04:17.985Z,99.90
2023-03-19T08:06:50.686Z,99.90
2023-03-19T08:09:23.036Z,99.90
2023-03-19T08:11:54.411Z,99.90
2023-03-19T08:14:26.144Z,99.90
2023-03-19T08:17:00.111Z,99.90
2023-03-19T08:19:32.610Z,99.90
2023-03-19T08:22:03.865Z,99.90
2023-03-19T08:24:35.413Z,99.90
2023-03-19T08:27:06.485Z,99.90
2023-03-19T08:29:37.701Z,99.90
2023-03-19T08:32:12.385Z,99.90
2023-03-19T08:34:44.277Z,99.90
2023-03-19T08:37:15.825Z,99.90
2023-03-19T08:39:47.164Z,99.90
2023-03-19T08:42:18.375Z,99.90
2023-03-19T08:44:50.009Z,99.90
2023-03-19T08:47:25.403Z,99.90
2023-03-19T08:49:57.103Z,99.90
2023-03-19T08:52:28.617Z,99.90
2023-03-19T08:55:00.139Z,99.90
2023-03-19T08:57:33.826Z,99.90
2023-03-19T09:00:05.683Z,99.90
2023-03-19T09:02:39.838Z,99.90
2023-03-19T09:05:11.643Z,99.90
2023-03-19T09:07:43.316Z,99.90
2023-03-19T09:10:15.173Z,99.90
2023-03-19T09:12:48.439Z,99.90
2023-03-19T09:15:20.645Z,99.90
2023-03-19T09:17:54.313Z,99.90
2023-03-19T09:20:25.837Z,99.90
2023-03-19T09:22:57.426Z,99.90
2023-03-19T09:25:28.602Z,99.90
2023-03-19T09:28:00.428Z,99.90
2023-03-19T09:30:31.561Z,99.90
2023-03-19T09:33:05.994Z,99.90
2023-03-19T09:35:39.350Z,99.90
2023-03-19T09:38:11.890Z,99.90
2023-03-19T09:40:47.471Z,99.90
2023-03-19T09:43:53.714Z,99.90
2023-03-19T09:46:32.746Z,99.90
2023-03-19T09:49:13.474Z,99.90
2023-03-19T09:51:49.830Z,99.90
2023-03-19T09:54:33.490Z,99.90
2023-03-19T09:57:05.673Z,99.90
2023-03-19T09:59:37.811Z,99.90
2023-03-19T10:02:35.303Z,99.90
2023-03-19T10:05:23.039Z,99.90
2023-03-19T10:08:09.704Z,99.90
2023-03-19T10:10:53.217Z,99.90
2023-03-19T10:13:41.180Z,99.90
2023-03-19T10:16:20.792Z,99.90
2023-03-19T10:18:54.367Z,99.90
2023-03-19T10:21:35.336Z,99.90
2023-03-19T10:24:10.920Z,99.90
2023-03-19T10:26:42.400Z,99.90
2023-03-19T10:29:17.947Z,99.90
2023-03-19T10:31:56.807Z,99.90
2023-03-19T10:34:46.037Z,99.90
2023-03-19T10:37:23.672Z,99.90
2023-03-19T10:39:57.215Z,99.90
2023-03-19T10:42:48.505Z,99.90
2023-03-19T10:45:28.138Z,99.90
2023-03-19T10:48:00.804Z,99.90
2023-03-19T10:50:38.896Z,99.90
2023-03-19T10:53:36.713Z,99.90
2023-03-19T10:56:13.756Z,99.90
2023-03-19T10:58:58.578Z,99.90
2023-03-19T11:01:35.900Z,99.90
2023-03-19T11:04:17.643Z,99.90
2023-03-19T11:06:55.173Z,99.90
2023-03-19T11:09:36.357Z,99.90
2023-03-19T11:12:19.193Z,99.90
2023-03-19T11:14:54.365Z,99.90
2023-03-19T11:17:29.502Z,99.90
2023-03-19T11:20:03.287Z,99.90
2023-03-19T11:22:37.753Z,99.90
2023-03-19T11:25:21.525Z,99.90
2023-03-19T11:28:02.961Z,99.90
2023-03-19T11:30:45.083Z,99.90
2023-03-19T11:33:45.935Z,99.90
2023-03-19T11:36:25.028Z,99.90
2023-03-19T11:39:14.092Z,99.90
2023-03-19T11:42:00.469Z,99.90
2023-03-19T11:44:36.694Z,99.90
2023-03-19T11:47:26.797Z,99.90
2023-03-19T11:50:19.448Z,99.90
2023-03-19T11:53:03.690Z,99.90
2023-03-19T11:55:41.001Z,99.90
2023-03-19T11:58:47.599Z,99.90
2023-03-19T12:01:32.573Z,99.90
2023-03-19T12:04:27.045Z,99.90
2023-03-19T12:07:09.628Z,99.90
2023-03-19T12:09:53.180Z,99.90
2023-03-19T12:12:30.627Z,99.90
2023-03-19T12:15:16.632Z,99.90
2023-03-19T12:18:08.047Z,99.90
2023-03-19T12:20:49.577Z,99.90
2023-03-19T12:23:31.028Z,99.90
2023-03-19T12:26:08.476Z,99.90
2023-03-19T12:28:44.435Z,99.90
2023-03-19T12:31:39.097Z,99.90
2023-03-19T12:34:30.752Z,99.90
2023-03-19T12:37:14.057Z,99.90
2023-03-19T12:39:54.336Z,99.90
2023-03-19T12:42:30.778Z,99.90
2023-03-19T12:45:05.864Z,99.90
2023-03-19T12:47:42.447Z,99.90
2023-03-19T12:50:20.878Z,99.90
2023-03-19T12:52:58.310Z,99.90
2023-03-19T12:55:41.485Z,99.90
2023-03-19T12:58:23.037Z,99.90
2023-03-19T13:01:04.075Z,99.90
2023-03-19T13:03:42.758Z,99.90
2023-03-19T13:06:23.928Z,99.90
2023-03-19T13:09:00.350Z,99.90
2023-03-19T13:11:41.575Z,99.90
2023-03-19T13:14:23.298Z,99.90
2023-03-19T13:17:00.987Z,99.90
2023-03-19T13:19:39.124Z,99.90
2023-03-19T13:22:17.145Z,99.90
2023-03-19T13:24:49.791Z,99.90
2023-03-19T13:27:25.731Z,99.90
2023-03-19T13:30:05.636Z,99.90
2023-03-19T13:32:43.286Z,99.90
2023-03-19T13:35:37.366Z,99.90
2023-03-19T13:38:24.335Z,99.90
2023-03-19T13:40:57.556Z,99.90
2023-03-19T13:43:55.357Z,99.90
2023-03-19T13:46:42.808Z,99.90
2023-03-19T13:49:30.036Z,99.90
2023-03-19T13:52:06.135Z,99.90
2023-03-19T13:54:42.301Z,99.90
2023-03-19T13:57:39.687Z,99.90
2023-03-19T14:00:47.545Z,99.90
2023-03-19T14:03:25.665Z,99.90
2023-03-19T14:06:01.059Z,99.90
2023-03-19T14:08:36.394Z,99.90
2023-03-19T14:11:10.681Z,99.90
2023-03-19T14:13:45.629Z,99.90
2023-03-19T14:16:21.785Z,99.90
2023-03-19T14:18:53.526Z,99.90
2023-03-19T14:21:37.660Z,99.90
2023-03-19T14:24:55.889Z,99.90
2023-03-19T14:27:34.481Z,99.90
2023-03-19T14:30:12.138Z,99.90
2023-03-19T14:32:48.901Z,99.90
2023-03-19T14:35:23.649Z,99.90
2023-03-19T14:37:56.454Z,99.90
2023-03-19T14:40:30.298Z,99.90
2023-03-19T14:43:11.438Z,99.90
2023-03-19T14:45:53.115Z,99.90
2023-03-19T14:48:37.204Z,99.90
2023-03-19T14:51:35.697Z,99.90
2023-03-19T14:54:21.453Z,99.90
2023-03-19T14:56:53.079Z,99.90
2023-03-19T14:59:27.131Z,99.90
2023-03-19T15:01:58.641Z,99.90
2023-03-19T15:04:30.612Z,99.90
2023-03-19T15:07:04.127Z,99.90
2023-03-19T15:09:39.390Z,99.90
2023-03-19T15:12:32.302Z,99.90
2023-03-19T15:15:41.632Z,99.90
2023-03-19T15:18:16.230Z,99.90
2023-03-19T15:20:51.900Z,99.90
2023-03-19T15:23:27.771Z,99.90
2023-03-19T15:26:02.565Z,99.90
2023-03-19T15:28:38.132Z,99.90
2023-03-19T15:31:30.339Z,99.90
2023-03-19T15:34:04.517Z,99.90
2023-03-19T15:36:37.673Z,99.90
2023-03-19T15:39:11.740Z,99.90
2023-03-19T15:41:50.763Z,99.90
2023-03-19T15:44:27.562Z,99.90
2023-03-19T15:47:04.955Z,99.90
2023-03-19T15:49:40.324Z,99.90
2023-03-19T15:52:15.802Z,99.90
2023-03-19T15:54:47.812Z,99.90
2023-03-19T15:57:21.873Z,99.90
2023-03-19T15:59:57.440Z,99.90
2023-03-19T16:02:34.061Z,99.90
2023-03-19T16:05:21.424Z,99.90
2023-03-19T16:08:00.200Z,99.90
2023-03-19T16:10:41.566Z,99.90
2023-03-19T16:13:31.865Z,99.90
2023-03-19T16:16:09.659Z,99.90
2023-03-19T16:18:58.729Z,99.90
2023-03-19T16:21:37.403Z,99.90
2023-03-19T16:24:16.813Z,99.90
2023-03-19T16:26:50.322Z,99.90
2023-03-19T16:29:26.848Z,99.90
2023-03-19T16:32:03.478Z,99.90
2023-03-19T16:34:44.050Z,99.90
2023-03-19T16:37:36.509Z,99.90
2023-03-19T16:40:36.953Z,99.90
2023-03-19T16:43:11.475Z,99.90
2023-03-19T16:45:43.763Z,99.90
2023-03-19T16:48:15.318Z,99.90
2023-03-19T16:50:48.514Z,99.90
2023-03-19T16:53:26.723Z,99.90
2023-03-19T16:56:00.187Z,99.90
2023-03-19T16:58:38.375Z,99.90
2023-03-19T17:01:19.366Z,99.90
2023-03-19T17:03:51.421Z,99.90
2023-03-19T17:06:26.001Z,99.90
2023-03-19T17:08:58.169Z,99.90
2023-03-19T17:11:32.377Z,99.90
2023-03-19T17:14:04.532Z,99.90
2023-03-19T17:16:36.849Z,99.90
2023-03-19T17:19:15.885Z,99.90
2023-03-19T17:21:50.577Z,99.90
2023-03-19T17:24:27.236Z,99.90
2023-03-19T17:27:00.649Z,99.90
2023-03-19T17:29:32.831Z,99.90
2023-03-19T17:32:06.181Z,99.90
2023-03-19T17:34:39.940Z,99.90
2023-03-19T17:37:17.602Z,99.90
2023-03-19T17:39:49.722Z,99.90
2023-03-19T17:42:26.957Z,99.90
2023-03-19T17:44:59.728Z,99.90
2023-03-19T17:47:32.454Z,99.90
2023-03-19T17:50:03.625Z,99.90
2023-03-19T17:52:37.676Z,99.90
2023-03-19T17:55:18.672Z,99.90
2023-03-19T17:57:50.263Z,99.90
2023-03-19T18:00:23.306Z,99.90
2023-03-19T18:02:57.670Z,99.90
2023-03-19T18:05:29.663Z,99.90
2023-03-19T18:08:03.130Z,99.90
2023-03-19T18:10:35.749Z,99.90
2023-03-19T18:13:07.540Z,99.90
2023-03-19T18:15:40.094Z,99.90
2023-03-19T18:18:16.285Z,99.90
2023-03-19T18:20:48.393Z,99.90
2023-03-19T18:23:23.555Z,99.90
2023-03-19T18:25:55.004Z,99.90
2023-03-19T18:28:28.421Z,99.90
2023-03-19T18:31:01.470Z,99.90
2023-03-19T18:33:34.962Z,99.90
2023-03-19T18:36:06.238Z,99.90
2023-03-19T18:38:38.898Z,99.90
2023-03-19T18:41:10.294Z,99.90
2023-03-19T18:43:41.245Z,99.90
2023-03-19T18:46:16.858Z,99.90
2023-03-19T18:48:48.272Z,99.90
2023-03-19T18:51:19.641Z,99.90
2023-03-19T18:53:53.172Z,99.90
2023-03-19T18:56:28.384Z,99.90
2023-03-19T18:59:00.883Z,99.90
2023-03-19T19:01:32.358Z,99.90
2023-03-19T19:04:05.366Z,99.90
2023-03-19T19:06:47.381Z,99.90
2023-03-19T19:09:21.450Z,99.90
2023-03-19T19:11:55.312Z,99.90
2023-03-19T19:14:27.378Z,99.90
2023-03-19T19:16:58.658Z,99.90
2023-03-19T19:19:30.664Z,99.90
2023-03-19T19:22:02.085Z,99.90
2023-03-19T19:24:35.370Z,99.90
2023-03-19T19:27:06.715Z,99.90
2023-03-19T19:29:38.185Z,99.90
2023-03-19T19:32:21.571Z,99.90
2023-03-19T19:34:52.690Z,99.90
2023-03-19T19:37:24.841Z,99.90
2023-03-19T19:39:58.513Z,99.90
2023-03-19T19:42:30.663Z,99.90
2023-03-19T19:45:04.206Z,99.90
2023-03-19T19:47:35.514Z,99.90
2023-03-19T19:50:07.007Z,99.90
2023-03-19T19:52:38.458Z,99.90
2023-03-19T19:55:13.343Z,99.90
2023-03-19T19:57:45.135Z,99.90
2023-03-19T20:00:22.755Z,99.90
2023-03-19T20:02:54.184Z,99.90
2023-03-19T20:05:27.652Z,99.50
2023-03-19T20:07:59.953Z,99.90
2023-03-19T20:10:34.466Z,98.00
2023-03-19T20:13:05.684Z,97.30
2023-03-19T20:15:38.648Z,98.80
2023-03-19T20:18:10.330Z,97.80
2023-03-19T20:20:41.714Z,97.70
2023-03-19T20:23:14.334Z,95.80
2023-03-19T20:25:47.802Z,96.70
2023-03-19T20:28:24.171Z,93.80
2023-03-19T20:30:57.412Z,93.50
2023-03-19T20:33:30.323Z,94.90
2023-03-19T20:36:03.068Z,92.90
2023-03-19T20:38:37.678Z,91.60
2023-03-19T20:41:17.860Z,91.10
2023-03-19T20:43:49.535Z,91.20
2023-03-19T20:46:23.555Z,91.40
2023-03-19T20:48:55.309Z,90.50
2023-03-19T20:51:32.534Z,91.20
2023-03-19T20:54:05.128Z,90.10
2023-03-19T20:56:40.510Z,87.30
2023-03-19T20:59:15.678Z,87.90
2023-03-19T21:01:47.997Z,89.70
2023-03-19T21:04:23.007Z,87.50
2023-03-19T21:06:57.005Z,88.60
2023-03-19T21:09:28.784Z,89.50
2023-03-19T21:12:01.623Z,84.50
2023-03-19T21:14:33.101Z,86.30
2023-03-19T21:17:04.000Z,85.90
2023-03-19T21:19:35.004Z,85.00
2023-03-19T21:22:06.875Z,87.00
2023-03-19T21:24:38.101Z,85.60
2023-03-19T21:27:13.088Z,86.30
2023-03-19T21:29:44.085Z,83.50
2023-03-19T21:32:19.630Z,83.00
2023-03-19T21:34:53.720Z,84.00
2023-03-19T21:37:24.817Z,83.50
2023-03-19T21:39:55.735Z,84.60
2023-03-19T21:42:31.611Z,84.10
2023-03-19T21:45:03.618Z,82.70
2023-03-19T21:47:34.973Z,84.10
2023-03-19T21:50:06.536Z,82.80
2023-03-19T21:52:53.684Z,83.60
2023-03-19T21:55:28.661Z,82.80
2023-03-19T21:58:02.650Z,81.80
2023-03-19T22:00:34.734Z,83.00
2023-03-19T22:03:05.501Z,81.60
2023-03-19T22:05:37.329Z,82.40
2023-03-19T22:08:08.737Z,82.00
2023-03-19T22:10:41.927Z,80.80
2023-03-19T22:13:22.404Z,82.90
2023-03-19T22:15:55.234Z,81.10
2023-03-19T22:18:26.311Z,80.30
2023-03-19T22:20:57.727Z,81.10
2023-03-19T22:23:29.404Z,81.60
2023-03-19T22:26:00.894Z,81.00
2023-03-19T22:28:36.255Z,81.30
2023-03-19T22:31:07.786Z,80.60
2023-03-19T22:33:38.746Z,82.10
2023-03-19T22:36:10.484Z,83.00
2023-03-19T22:38:41.711Z,81.20
2023-03-19T22:41:19.075Z,79.70
2023-03-19T22:43:52.237Z,80.40
2023-03-19T22:46:26.394Z,82.10
2023-03-19T22:48:57.546Z,79.00
2023-03-19T22:51:30.687Z,79.90
2023-03-19T22:54:01.440Z,81.00
2023-03-19T22:56:32.684Z,81.10
2023-03-19T22:59:07.496Z,80.00
2023-03-19T23:01:43.237Z,82.60
2023-03-19T23:04:32.123Z,81.10
2023-03-19T23:07:03.821Z,81.80
2023-03-19T23:09:37.096Z,81.10
2023-03-19T23:12:13.448Z,80.90
2023-03-19T23:14:46.824Z,81.20
2023-03-19T23:17:20.673Z,79.70
2023-03-19T23:19:52.366Z,79.70
2023-03-19T23:22:24.029Z,80.70
2023-03-19T23:24:55.142Z,81.60
2023-03-19T23:27:28.188Z,82.90
2023-03-19T23:30:02.161Z,80.60
2023-03-19T23:32:34.395Z,81.80
2023-03-19T23:35:08.365Z,83.10
2023-03-19T23:37:40.669Z,79.80
2023-03-19T23:40:13.452Z,81.40
2023-03-19T23:42:48.973Z,82.60
2023-03-19T23:45:32.597Z,87.70
2023-03-19T23:48:07.001Z,87.50
2023-03-19T23:50:37.992Z,88.50
2023-03-19T23:53:09.653Z,89.70
2023-03-19T23:55:40.630Z,90.50
2023-03-19T23:58:12.206Z,91.60
